createdAt,value
2018-02-24T00:01:29.362Z,30.23
2018-02-24T00:03:56.976Z,23.73
2018-02-24T00:06:24.620Z,29.85
2018-02-24T00:08:52.663Z,29.35
2018-02-24T00:11:20.244Z,27.50
2018-02-24T00:13:47.900Z,29.92
2018-02-24T00:16:15.923Z,25.00
2018-02-24T00:18:43.536Z,26.33
2018-02-24T00:21:11.151Z,28.55
2018-02-24T00:23:38.796Z,25.23
2018-02-24T00:26:06.363Z,26.77
2018-02-24T00:28:34.008Z,23.83
2018-02-24T00:31:01.647Z,27.55
2018-02-24T00:33:29.288Z,32.95
2018-02-24T00:35:56.887Z,21.73
2018-02-24T00:38:24.512Z,29.30
2018-02-24T00:40:52.099Z,25.62
2018-02-24T00:43:19.762Z,28.87
2018-02-24T00:45:47.322Z,24.55
2018-02-24T00:48:14.928Z,27.67
2018-02-24T00:50:42.562Z,30.42
2018-02-24T00:53:10.200Z,28.38
2018-02-24T00:55:37.822Z,28.92
2018-02-24T00:58:05.847Z,28.67
2018-02-24T01:00:33.444Z,27.98
2018-02-24T01:03:01.106Z,25.40
2018-02-24T01:05:28.712Z,27.13
2018-02-24T01:07:56.294Z,23.30
2018-02-24T01:10:23.867Z,27.77
2018-02-24T01:12:51.511Z,27.60
2018-02-24T01:15:19.111Z,27.58
2018-02-24T01:17:46.776Z,26.40
2018-02-24T01:20:14.392Z,25.77
2018-02-24T01:22:42.060Z,30.15
2018-02-24T01:25:09.660Z,29.17
2018-02-24T01:27:37.710Z,26.12
2018-02-24T01:30:05.367Z,24.25
2018-02-24T01:32:32.966Z,24.37
2018-02-24T01:35:00.559Z,31.05
2018-02-24T01:37:28.152Z,27.58
2018-02-24T01:39:56.146Z,32.00
2018-02-24T01:42:23.813Z,25.88
2018-02-24T01:44:51.472Z,29.73
2018-02-24T01:47:19.112Z,30.27
2018-02-24T01:49:47.149Z,27.52
2018-02-24T01:52:14.772Z,25.35
2018-02-24T01:54:42.400Z,27.95
2018-02-24T01:57:10.443Z,26.77
2018-02-24T01:59:38.051Z,24.60
2018-02-24T02:02:05.617Z,25.73
2018-02-24T02:04:33.212Z,31.98
2018-02-24T02:07:00.775Z,31.70
2018-02-24T02:09:28.392Z,28.10
2018-02-24T02:11:55.990Z,24.95
2018-02-24T02:14:23.626Z,26.08
2018-02-24T02:16:51.227Z,32.78
2018-02-24T02:19:18.861Z,35.22
2018-02-24T02:21:46.444Z,25.27
2018-02-24T02:24:14.041Z,28.60
2018-02-24T02:26:41.598Z,28.15
2018-02-24T02:29:09.266Z,28.12
2018-02-24T02:31:36.880Z,27.15
2018-02-24T02:34:04.954Z,26.85
2018-02-24T02:36:32.487Z,28.52
2018-02-24T02:39:00.080Z,25.45
2018-02-24T02:41:28.073Z,26.52
2018-02-24T02:43:55.659Z,29.35
2018-02-24T02:46:23.250Z,28.12
2018-02-24T02:48:50.886Z,26.23
2018-02-24T02:51:18.463Z,23.90
2018-02-24T02:53:46.093Z,24.08
2018-02-24T02:56:13.678Z,22.45
2018-02-24T02:58:41.272Z,27.00
2018-02-24T03:01:08.871Z,28.90
2018-02-24T03:03:36.453Z,29.35
2018-02-24T03:06:04.077Z,23.20
2018-02-24T03:08:31.671Z,31.95
2018-02-24T03:10:59.277Z,26.67
2018-02-24T03:13:26.863Z,28.42
2018-02-24T03:15:54.626Z,21.62
2018-02-24T03:18:22.255Z,30.35
2018-02-24T03:20:49.869Z,29.55
2018-02-24T03:23:17.458Z,26.05
2018-02-24T03:25:45.056Z,25.98
2018-02-24T03:28:12.648Z,26.87
2018-02-24T03:30:40.302Z,26.40
2018-02-24T03:33:07.885Z,32.45
2018-02-24T03:35:35.455Z,30.33
2018-02-24T03:38:03.030Z,28.65
2018-02-24T03:40:30.653Z,26.60
2018-02-24T03:42:58.257Z,35.17
2018-02-24T03:45:28.337Z,26.20
2018-02-24T03:47:56.330Z,28.60
2018-02-24T03:50:23.945Z,30.73
2018-02-24T03:52:51.504Z,27.55
2018-02-24T03:55:19.125Z,30.05
2018-02-24T03:57:46.739Z,28.17
2018-02-24T04:00:14.391Z,29.20
2018-02-24T04:02:41.969Z,32.60
2018-02-24T04:05:09.990Z,34.28
2018-02-24T04:07:37.556Z,25.65
2018-02-24T04:10:05.138Z,29.60
2018-02-24T04:12:32.701Z,30.85
2018-02-24T04:15:00.337Z,34.40
2018-02-24T04:17:27.936Z,31.33
2018-02-24T04:19:55.986Z,32.63
2018-02-24T04:22:23.617Z,32.20
2018-02-24T04:24:51.226Z,30.83
2018-02-24T04:27:19.254Z,31.05
2018-02-24T04:29:46.876Z,37.83
2018-02-24T04:32:14.465Z,37.75
2018-02-24T04:34:42.071Z,29.20
2018-02-24T04:37:09.680Z,29.48
2018-02-24T04:39:37.338Z,32.45
2018-02-24T04:42:04.933Z,33.17
2018-02-24T04:44:32.551Z,36.88
2018-02-24T04:47:00.169Z,31.08
2018-02-24T04:49:28.166Z,35.35
2018-02-24T04:51:55.770Z,33.25
2018-02-24T04:54:23.341Z,32.50
2018-02-24T04:56:50.956Z,33.92
2018-02-24T04:59:18.578Z,33.38
2018-02-24T05:01:46.170Z,27.58
2018-02-24T05:04:13.757Z,37.67
2018-02-24T05:06:41.383Z,44.50
2018-02-24T05:09:08.952Z,33.92
2018-02-24T05:11:36.554Z,31.90
2018-02-24T05:14:04.154Z,33.30
2018-02-24T05:16:31.753Z,32.65
2018-02-24T05:18:59.359Z,36.63
2018-02-24T05:21:27.034Z,34.60
2018-02-24T05:23:54.597Z,36.78
2018-02-24T05:26:22.264Z,34.05
2018-02-24T05:28:49.899Z,36.80
2018-02-24T05:31:17.507Z,33.67
2018-02-24T05:33:45.106Z,35.83
2018-02-24T05:36:12.726Z,35.45
2018-02-24T05:38:40.364Z,32.22
2018-02-24T05:41:08.024Z,35.42
2018-02-24T05:43:35.614Z,33.33
2018-02-24T05:46:03.238Z,34.92
2018-02-24T05:48:30.844Z,38.35
2018-02-24T05:50:58.446Z,37.35
2018-02-24T05:53:26.037Z,31.08
2018-02-24T05:55:53.655Z,35.78
2018-02-24T05:58:21.271Z,37.47
2018-02-24T06:00:48.915Z,36.92
2018-02-24T06:03:16.501Z,36.55
2018-02-24T06:05:44.130Z,31.05
2018-02-24T06:08:11.721Z,37.42
2018-02-24T06:10:41.329Z,35.38
2018-02-24T06:13:09.327Z,36.58
2018-02-24T06:15:36.919Z,38.72
2018-02-24T06:18:04.565Z,34.28
2018-02-24T06:20:32.229Z,36.60
2018-02-24T06:22:59.828Z,35.00
2018-02-24T06:25:27.448Z,33.55
2018-02-24T06:27:55.062Z,36.75
2018-02-24T06:30:23.057Z,32.55
2018-02-24T06:32:50.879Z,32.90
2018-02-24T06:35:18.639Z,41.22
2018-02-24T06:37:46.287Z,35.72
2018-02-24T06:40:13.891Z,35.55
2018-02-24T06:42:41.486Z,41.35
2018-02-24T06:45:09.060Z,41.28
2018-02-24T06:47:36.888Z,36.13
2018-02-24T06:50:04.576Z,35.90
2018-02-24T06:52:32.159Z,39.35
2018-02-24T06:54:59.737Z,35.70
2018-02-24T06:57:27.350Z,38.03
2018-02-24T06:59:55.734Z,37.78
2018-02-24T07:02:23.336Z,37.50
2018-02-24T07:04:50.911Z,36.00
2018-02-24T07:07:18.557Z,42.70
2018-02-24T07:09:46.152Z,39.70
2018-02-24T07:12:13.820Z,39.30
2018-02-24T07:14:41.425Z,38.03
2018-02-24T07:17:09.064Z,39.45
2018-02-24T07:19:36.633Z,37.08
2018-02-24T07:22:04.270Z,39.72
2018-02-24T07:24:31.907Z,45.33
2018-02-24T07:26:59.533Z,42.15
2018-02-24T07:29:28.259Z,41.95
2018-02-24T07:31:55.924Z,41.37
2018-02-24T07:34:23.604Z,36.53
2018-02-24T07:36:52.550Z,37.45
2018-02-24T07:39:20.506Z,36.40
2018-02-24T07:41:48.886Z,38.75
2018-02-24T07:44:16.523Z,38.33
2018-02-24T07:46:44.544Z,40.17
2018-02-24T07:49:12.151Z,35.03
2018-02-24T07:51:39.780Z,44.33
2018-02-24T07:54:07.422Z,39.92
2018-02-24T07:56:35.032Z,41.58
2018-02-24T07:59:03.018Z,41.17
2018-02-24T08:01:30.639Z,35.97
2018-02-24T08:03:58.257Z,37.72
2018-02-24T08:06:25.859Z,35.72
2018-02-24T08:08:53.459Z,38.83
2018-02-24T08:11:21.040Z,33.53
2018-02-24T08:13:48.692Z,35.13
2018-02-24T08:16:16.266Z,35.92
2018-02-24T08:18:43.957Z,36.88
2018-02-24T08:21:11.586Z,32.47
2018-02-24T08:23:39.222Z,35.88
2018-02-24T08:26:06.843Z,34.53
2018-02-24T08:28:34.485Z,36.55
2018-02-24T08:31:02.040Z,32.42
2018-02-24T08:33:29.693Z,33.50
2018-02-24T08:35:57.294Z,35.00
2018-02-24T08:38:24.886Z,38.28
2018-02-24T08:40:52.479Z,35.20
2018-02-24T08:43:20.461Z,32.83
2018-02-24T08:45:48.043Z,33.15
2018-02-24T08:48:16.044Z,37.70
2018-02-24T08:50:43.644Z,33.83
2018-02-24T08:53:11.295Z,33.90
2018-02-24T08:55:38.899Z,32.38
2018-02-24T08:58:06.813Z,30.95
2018-02-24T09:00:34.417Z,29.75
2018-02-24T09:03:02.038Z,32.92
2018-02-24T09:05:30.095Z,27.95
2018-02-24T09:07:57.977Z,33.55
2018-02-24T09:10:25.622Z,39.13
2018-02-24T09:12:53.255Z,32.88
2018-02-24T09:15:20.845Z,28.70
2018-02-24T09:17:48.506Z,33.13
2018-02-24T09:20:16.130Z,35.10
2018-02-24T09:22:43.797Z,30.23
2018-02-24T09:25:11.416Z,32.55
2018-02-24T09:27:39.458Z,28.50
2018-02-24T09:30:07.058Z,27.97
2018-02-24T09:32:34.654Z,30.10
2018-02-24T09:35:02.237Z,29.13
2018-02-24T09:37:29.835Z,30.73
2018-02-24T09:39:57.473Z,29.77
2018-02-24T09:42:25.137Z,29.00
2018-02-24T09:44:52.772Z,27.37
2018-02-24T09:47:20.586Z,30.17
2018-02-24T09:49:48.221Z,30.70
2018-02-24T09:52:15.820Z,29.17
2018-02-24T09:54:43.435Z,25.70
2018-02-24T09:57:11.976Z,30.45
2018-02-24T09:59:40.034Z,28.00
2018-02-24T10:02:15.599Z,30.27
2018-02-24T10:04:43.244Z,29.70
2018-02-24T10:07:10.886Z,23.93
2018-02-24T10:09:38.498Z,27.07
2018-02-24T10:12:06.122Z,25.77
2018-02-24T10:14:35.861Z,27.03
2018-02-24T10:17:03.427Z,26.63
2018-02-24T10:19:31.388Z,25.23
2018-02-24T10:21:59.020Z,31.47
2018-02-24T10:24:26.601Z,25.67
2018-02-24T10:26:59.063Z,26.97
2018-02-24T10:29:27.710Z,26.97
2018-02-24T10:31:55.290Z,26.03
2018-02-24T10:37:16.206Z,23.63
2018-02-24T10:39:43.815Z,23.77
2018-02-24T10:42:11.421Z,24.97
2018-02-24T10:44:39.026Z,21.60
2018-02-24T10:47:12.402Z,22.03
2018-02-24T10:49:39.996Z,26.07
2018-02-24T10:52:07.582Z,23.93
2018-02-24T10:54:35.183Z,23.90
2018-02-24T10:57:02.756Z,23.77
2018-02-24T10:59:30.391Z,23.30
2018-02-24T11:01:57.968Z,23.20
2018-02-24T11:04:25.661Z,19.97
2018-02-24T11:06:53.242Z,21.97
2018-02-24T11:09:20.927Z,21.17
2018-02-24T11:11:48.505Z,20.90
2018-02-24T11:14:16.132Z,20.27
2018-02-24T11:16:43.722Z,20.83
2018-02-24T11:19:11.316Z,18.80
2018-02-24T11:21:38.948Z,19.40
2018-02-24T11:24:06.564Z,24.67
2018-02-24T11:26:34.160Z,18.77
2018-02-24T11:29:01.843Z,18.60
2018-02-24T11:31:29.417Z,24.27
2018-02-24T11:33:57.400Z,20.20
2018-02-24T11:36:25.047Z,19.83
2018-02-24T11:38:52.651Z,18.97
2018-02-24T11:41:20.214Z,20.90
2018-02-24T11:44:01.679Z,18.10
2018-02-24T11:46:29.274Z,20.77
2018-02-24T11:48:56.884Z,17.80
2018-02-24T11:51:24.494Z,18.33
2018-02-24T11:53:52.131Z,19.90
2018-02-24T11:56:19.731Z,18.30
2018-02-24T11:58:47.492Z,19.83
2018-02-24T12:01:15.150Z,20.53
2018-02-24T12:03:42.762Z,18.00
2018-02-24T12:06:10.453Z,17.47
2018-02-24T12:08:38.133Z,17.73
2018-02-24T12:11:05.805Z,16.47
2018-02-24T12:13:33.389Z,16.43
2018-02-24T12:16:00.974Z,18.27
2018-02-24T12:18:28.613Z,13.73
2018-02-24T12:20:56.207Z,12.07
2018-02-24T12:23:23.800Z,16.37
2018-02-24T12:25:51.853Z,13.03
2018-02-24T12:28:19.468Z,15.03
2018-02-24T12:30:47.068Z,17.13
2018-02-24T12:33:14.640Z,14.67
2018-02-24T12:35:42.224Z,16.43
2018-02-24T12:38:09.859Z,16.07
2018-02-24T12:40:37.438Z,16.20
2018-02-24T12:43:04.995Z,14.00
2018-02-24T12:45:32.587Z,12.33
2018-02-24T12:48:00.168Z,15.03
2018-02-24T12:50:27.809Z,15.77
2018-02-24T12:52:55.390Z,13.77
2018-02-24T12:55:23.019Z,13.67
2018-02-24T12:57:50.603Z,13.93
2018-02-24T13:00:18.191Z,15.47
2018-02-24T13:02:45.780Z,14.63
2018-02-24T13:05:13.415Z,15.87
2018-02-24T13:07:40.943Z,15.30
2018-02-24T13:10:08.521Z,14.07
2018-02-24T13:12:39.307Z,16.30
2018-02-24T13:15:06.947Z,14.70
2018-02-24T13:17:34.531Z,15.57
2018-02-24T13:20:02.494Z,15.37
2018-02-24T13:22:30.074Z,13.97
2018-02-24T13:24:57.923Z,20.37
2018-02-24T13:27:25.559Z,17.03
2018-02-24T13:29:53.153Z,15.27
2018-02-24T13:32:20.764Z,21.87
2018-02-24T13:34:48.310Z,18.93
2018-02-24T13:37:15.950Z,19.60
2018-02-24T13:39:43.522Z,20.70
2018-02-24T13:42:11.522Z,24.00
2018-02-24T13:44:39.125Z,16.90
2018-02-24T13:47:06.708Z,18.07
2018-02-24T13:49:34.266Z,14.70
2018-02-24T13:52:01.865Z,17.27
2018-02-24T13:54:29.437Z,17.27
2018-02-24T13:56:57.103Z,17.33
2018-02-24T13:59:24.697Z,19.50
2018-02-24T14:01:52.307Z,16.17
2018-02-24T14:04:19.896Z,18.37
2018-02-24T14:06:47.518Z,16.80
2018-02-24T14:09:15.089Z,18.20
2018-02-24T14:11:42.717Z,16.37
2018-02-24T14:14:10.334Z,16.77
2018-02-24T14:16:37.975Z,13.80
2018-02-24T14:19:05.555Z,14.10
2018-02-24T14:21:33.215Z,14.40
2018-02-24T14:24:00.852Z,14.93
2018-02-24T14:26:28.439Z,14.90
2018-02-24T14:28:56.030Z,18.73
2018-02-24T14:31:23.618Z,13.20
2018-02-24T14:33:51.234Z,13.67
2018-02-24T14:36:18.822Z,15.07
2018-02-24T14:38:46.407Z,16.13
2018-02-24T14:41:14.279Z,12.93
2018-02-24T14:43:42.114Z,14.17
2018-02-24T14:46:09.699Z,14.30
2018-02-24T14:48:37.270Z,13.93
2018-02-24T14:51:05.257Z,17.43
2018-02-24T14:53:32.856Z,14.13
2018-02-24T14:56:01.419Z,14.43
2018-02-24T14:58:29.330Z,10.93
2018-02-24T15:00:56.954Z,14.50
2018-02-24T15:03:24.547Z,12.00
2018-02-24T15:05:52.163Z,13.07
2018-02-24T15:08:19.794Z,13.63
2018-02-24T15:10:47.362Z,12.17
2018-02-24T15:13:14.959Z,10.77
2018-02-24T15:15:42.541Z,9.67
2018-02-24T15:18:10.186Z,10.37
2018-02-24T15:20:37.767Z,10.03
2018-02-24T15:23:05.357Z,12.50
2018-02-24T15:25:32.958Z,13.97
2018-02-24T15:28:00.608Z,9.57
2018-02-24T15:30:28.274Z,8.53
2018-02-24T15:32:55.852Z,9.87
2018-02-24T15:35:23.431Z,10.33
2018-02-24T15:37:51.398Z,10.50
2018-02-24T15:40:19.014Z,9.90
2018-02-24T15:42:46.802Z,12.63
2018-02-24T15:45:14.432Z,11.53
2018-02-24T15:47:42.051Z,6.80
2018-02-24T15:50:09.616Z,8.33
2018-02-24T15:52:37.427Z,9.87
2018-02-24T15:55:05.883Z,11.43
2018-02-24T15:57:33.499Z,8.30
2018-02-24T16:00:01.119Z,10.27
2018-02-24T16:02:28.759Z,9.77
2018-02-24T16:04:56.376Z,11.20
2018-02-24T16:07:24.009Z,9.93
2018-02-24T16:09:51.573Z,13.00
2018-02-24T16:12:19.196Z,10.77
2018-02-24T16:14:46.802Z,12.67
2018-02-24T16:17:14.444Z,9.93
2018-02-24T16:19:42.029Z,11.10
2018-02-24T16:22:09.724Z,11.23
2018-02-24T16:24:37.259Z,10.53
2018-02-24T16:27:04.890Z,13.17
2018-02-24T16:29:32.439Z,10.93
2018-02-24T16:32:00.037Z,10.07
2018-02-24T16:34:27.609Z,12.60
2018-02-24T16:36:55.181Z,8.60
2018-02-24T16:39:22.767Z,10.03
2018-02-24T16:41:50.452Z,11.77
2018-02-24T16:44:18.029Z,14.70
2018-02-24T16:46:45.678Z,11.97
2018-02-24T16:49:13.247Z,12.07
2018-02-24T16:51:40.859Z,11.30
2018-02-24T16:54:08.653Z,11.70
2018-02-24T16:56:36.244Z,14.47
2018-02-24T16:59:03.971Z,10.07
2018-02-24T17:01:31.565Z,10.23
2018-02-24T17:03:59.397Z,13.37
2018-02-24T17:06:26.981Z,11.03
2018-02-24T17:08:54.638Z,13.97
2018-02-24T17:11:22.188Z,11.83
2018-02-24T17:13:49.783Z,16.67
2018-02-24T17:16:17.379Z,11.07
2018-02-24T17:18:44.973Z,11.30
2018-02-24T17:21:12.553Z,11.80
2018-02-24T17:23:40.154Z,12.27
2018-02-24T17:26:07.759Z,12.70
2018-02-24T17:28:35.394Z,9.53
2018-02-24T17:31:02.968Z,11.77
2018-02-24T17:33:30.583Z,13.80
2018-02-24T17:35:58.183Z,11.27
2018-02-24T17:38:25.963Z,12.53
2018-02-24T17:40:53.547Z,11.70
2018-02-24T17:43:21.154Z,14.73
2018-02-24T17:45:48.729Z,15.65
2018-02-24T17:48:16.362Z,13.13
2018-02-24T17:50:43.929Z,12.15
2018-02-24T17:53:11.543Z,10.00
2018-02-24T17:55:39.113Z,14.27
2018-02-24T17:58:06.726Z,13.27
2018-02-24T18:00:34.324Z,12.10
2018-02-24T18:03:01.930Z,12.80
2018-02-24T18:05:29.474Z,9.02
2018-02-24T18:07:57.114Z,7.62
2018-02-24T18:10:24.750Z,7.05
2018-02-24T18:12:52.356Z,4.50
2018-02-24T18:15:19.931Z,4.33
2018-02-24T18:17:47.539Z,8.85
2018-02-24T18:20:15.130Z,12.60
2018-02-24T18:22:42.762Z,6.85
2018-02-24T18:25:10.347Z,7.10
2018-02-24T18:27:37.949Z,9.73
2018-02-24T18:30:05.549Z,50.27
2018-02-24T18:32:33.159Z,19.10
2018-02-24T18:35:00.783Z,6.28
2018-02-24T18:37:28.358Z,6.90
2018-02-24T18:39:55.942Z,4.40
2018-02-24T18:42:23.527Z,4.40
2018-02-24T18:44:51.202Z,5.57
2018-02-24T18:47:18.798Z,5.28
2018-02-24T18:49:46.841Z,4.12
2018-02-24T18:52:14.411Z,9.48
2018-02-24T18:54:42.058Z,6.73
2018-02-24T18:57:09.602Z,7.07
2018-02-24T18:59:37.234Z,4.45
2018-02-24T19:02:04.810Z,5.93
2018-02-24T19:04:32.442Z,6.40
2018-02-24T19:07:00.068Z,7.20
2018-02-24T19:09:27.666Z,4.68
2018-02-24T19:11:55.815Z,4.97
2018-02-24T19:14:23.578Z,8.00
2018-02-24T19:16:51.734Z,6.95
2018-02-24T19:19:19.494Z,8.60
2018-02-24T19:21:47.872Z,8.80
2018-02-24T19:24:16.199Z,6.57
2018-02-24T19:26:45.239Z,6.90
2018-02-24T19:29:12.874Z,8.93
2018-02-24T19:31:41.065Z,11.20
2018-02-24T19:34:08.835Z,13.52
2018-02-24T19:36:37.838Z,6.28
2018-02-24T19:39:05.442Z,6.68
2018-02-24T19:41:33.260Z,6.15
2018-02-24T19:44:01.012Z,9.60
2018-02-24T19:46:28.603Z,6.15
2018-02-24T19:48:57.254Z,7.25
2018-02-24T19:51:24.899Z,5.30
2018-02-24T19:53:52.492Z,7.62
2018-02-24T19:56:20.126Z,6.85
2018-02-24T19:58:47.675Z,7.50
2018-02-24T20:01:18.837Z,7.00
2018-02-24T20:03:46.415Z,10.43
2018-02-24T20:06:14.188Z,9.88
2018-02-24T20:08:42.617Z,9.45
2018-02-24T20:11:10.311Z,7.60
2018-02-24T20:13:37.886Z,6.50
2018-02-24T20:16:05.721Z,6.07
2018-02-24T20:18:33.331Z,6.72
2018-02-24T20:21:00.997Z,9.20
2018-02-24T20:23:29.018Z,6.65
2018-02-24T20:25:56.791Z,4.87
2018-02-24T20:28:24.563Z,7.12
2018-02-24T20:30:52.202Z,7.62
2018-02-24T20:33:20.231Z,10.30
2018-02-24T20:35:47.859Z,5.57
2018-02-24T20:38:15.442Z,6.30
2018-02-24T20:40:43.027Z,5.10
2018-02-24T20:43:10.804Z,9.30
2018-02-24T20:45:38.434Z,8.45
2018-02-24T20:48:06.650Z,7.22
2018-02-24T20:50:34.295Z,7.68
2018-02-24T20:53:02.501Z,5.95
2018-02-24T20:55:30.102Z,9.60
2018-02-24T20:57:57.671Z,5.15
2018-02-24T21:00:25.274Z,6.90
2018-02-24T21:02:53.232Z,8.43
2018-02-24T21:05:20.858Z,9.48
2018-02-24T21:07:48.435Z,7.00
2018-02-24T21:10:17.426Z,9.60
2018-02-24T21:12:45.059Z,10.52
2018-02-24T21:15:12.626Z,8.02
2018-02-24T21:17:40.405Z,9.25
2018-02-24T21:20:09.562Z,9.93
2018-02-24T21:22:38.807Z,10.63
2018-02-24T21:25:07.102Z,7.97
2018-02-24T21:27:34.751Z,7.87
2018-02-24T21:30:02.598Z,16.77
2018-02-24T21:32:31.676Z,14.55
2018-02-24T21:34:59.337Z,9.57
2018-02-24T21:37:26.941Z,12.60
2018-02-24T21:39:54.788Z,9.27
2018-02-24T21:42:22.457Z,6.78
2018-02-24T21:44:50.077Z,8.63
2018-02-24T21:47:17.678Z,8.98
2018-02-24T21:49:45.278Z,12.18
2018-02-24T21:52:12.919Z,7.87
2018-02-24T21:54:40.964Z,10.18
2018-02-24T21:57:08.533Z,9.35
2018-02-24T21:59:36.511Z,8.90
2018-02-24T22:02:04.115Z,6.65
2018-02-24T22:04:31.680Z,7.68
2018-02-24T22:06:59.687Z,5.50
2018-02-24T22:09:27.626Z,9.27
2018-02-24T22:11:55.687Z,9.43
2018-02-24T22:14:23.589Z,9.93
2018-02-24T22:16:51.338Z,9.50
2018-02-24T22:19:18.898Z,9.30
2018-02-24T22:21:46.496Z,12.10
2018-02-24T22:24:14.102Z,6.95
2018-02-24T22:26:42.346Z,6.43
2018-02-24T22:29:10.648Z,5.80
2018-02-24T22:31:39.234Z,6.18
2018-02-24T22:34:07.061Z,9.68
2018-02-24T22:36:35.121Z,8.05
2018-02-24T22:39:02.755Z,7.93
2018-02-24T22:41:30.735Z,9.98
2018-02-24T22:43:59.331Z,7.00
2018-02-24T22:46:27.853Z,7.40
2018-02-24T22:49:01.588Z,7.18
2018-02-24T22:51:30.055Z,7.87
2018-02-24T22:53:57.649Z,7.70
2018-02-24T22:56:25.356Z,6.57
2018-02-24T22:58:52.919Z,8.95
2018-02-24T23:01:20.514Z,8.57
2018-02-24T23:03:48.132Z,5.87
2018-02-24T23:06:15.718Z,6.57
2018-02-24T23:08:43.315Z,6.00
2018-02-24T23:11:10.959Z,7.30
2018-02-24T23:13:39.003Z,6.43
2018-02-24T23:16:06.597Z,8.95
2018-02-24T23:18:34.567Z,6.00
2018-02-24T23:21:02.559Z,7.50
2018-02-24T23:23:30.157Z,5.18
2018-02-24T23:25:57.777Z,5.05
2018-02-24T23:28:25.399Z,4.97
2018-02-24T23:30:53.116Z,7.05
2018-02-24T23:33:20.714Z,6.37
2018-02-24T23:35:48.283Z,7.25
2018-02-24T23:38:15.903Z,7.85
2018-02-24T23:40:43.462Z,4.87
2018-02-24T23:43:11.088Z,6.47
2018-02-24T23:45:38.667Z,9.77
2018-02-24T23:48:06.241Z,5.53
2018-02-24T23:50:33.814Z,5.40
2018-02-24T23:53:01.465Z,7.87
2018-02-24T23:55:29.027Z,8.05
2018-02-24T23:57:56.647Z,8.52
